Get Adobe Flash player

РУС

ENG

 
  Pireps - S7
 

Рейс SBI6

  • Выполнял: Aleksey Davtyan
  • Аэропорт отправления: Domodedovo Airport (UUDD)
  • Аэропорт назначения: Pulkovo Airport (ULLI)
  • Тип ВС: A320-214 (VQ-BRC)
  • Время полёта: 01.57
  • Дата полёта: 12.08.2017
  • Маршрут: WT BEL1D BELAG R369 DB B964 LUKIR
  • Статус: Одобрен

Детали полёта
Gross Revenue:
(135 load / $ 200.00 per unit
$ 27, 000.00
Fuel Cost:
(3413 fuel used @ 5.1 / unit)
$ 17, 406.30


Дополнительная информация о полёте:

Лог

Aircraft Used in flight is Feelthere A320 CFM S7 Airlines VQ-BRG
18:37 Boarding
18:37 Navigation Lights ON at 600 AGL
18:37 Beacon Lights ON at 600 AGL
18:37 Brakes are On
18:47 Navigation Lights OFF at 600 AGL
18:47 Beacon Lights OFF at 600 AGL
18:47 Beacon Lights ON at 600 AGL
18:47 Beacon Lights OFF at 600 AGL
18:52 Navigation Lights ON at 600 AGL
18:52 Beacon Lights ON at 600 AGL
18:55 Strobe Lights ON at 600 AGL
18:55 Taxi Lights ON at 600 AGL
18:55 Engine 2 Started
18:56 Engine 1 Started
18:56Flaps 1 Selected at 600ft and 1kts
18:56Flaps 2 Selected at 600ft and 0kts
18:56Flaps 3 Selected at 600ft and 0kts
18:57 Brakes are Released
19:03 Brakes are On
19:03 Landing Lights ON at 600 AGL
19:03 Brakes are Released
19:04 You Took off @ 148 Knots and Flaps at Position 3
Departure Weather
UUDD 121330Z 01002MPS 290V070 CAVOK 26/11 Q1017 R88/010095 NOSIGrn
19:04 Landing Gear Up @ 141 Knots and 1820 Feet
19:04Flaps 2 Selected at 1990ft and 133kts
19:05Flaps Retracted at 3210ft and 184kts
19:08 Landing Lights OFF at 9610 AGL
19:08 Taxi Lights OFF at 9700 AGL
19:19 TOC Reached
19:32 Paused
19:48 Unpaused
20:45Flaps 1 Selected at 2390ft and 198kts
20:45 Landing Lights ON at 2390 AGL
20:45 Taxi Lights ON at 2390 AGL
20:45 Landing Gear Down @ 198 Knots and 2390 Feet
20:49 You Landed @ 175 Knots and with -150 Vertical Speed
Arrival Weather
ULLI 121300Z 18006MPS 9999 FEW039 26/17 Q1012 R10R/090060 R10L/190050 NOSIGrn
20:51 Brakes are On
20:51 Landing Lights OFF at 90 AGL
20:51 Strobe Lights OFF at 90 AGL
Pirep logged with S7 Tracking 1.0.0.14



Общая оценка полета : 100%




Route Map



 
 
   
 
Новости

18.08.2017 - Обновление S7 pad

С выходом версии P3d v4 наш клиент S7 pad мог не работать.
Нами проделана работа по оптимизации клиента и теперь доступна версия для P3d V4.
скачать новую версию клиента и установить FSUIPC5. Все есть в архиве.

   
 
Авторизация






Регистрация

Восстановить пароль?

Мы в соц. сетях

      



   
  TeamSpeak3 ts.va-s7.ru


   
 

   
 



   
 


Яндекс.Метрика

www.va-s7.ru 2011-2017
Все права защищены.



Минуточку внимания!
Мы не имеем отношения к торговым маркам "S7" и "Globus" и их представителям.
Эмблемы на сайте являются собственностью соответствующих компаний.

аэронавигационная метеорологическая и любая другая информация с данного ресурса ни в коем случае не должна использоваться для реальных полетов